sensor_id;sensor_type;location;lat;lon;timestamp;temperature;humidity
63966;DHT22;50151;52.030;5.350;2024-03-02T18:10:22;12.40;99.90
63966;DHT22;50151;52.030;5.350;2024-03-02T18:12:49;12.40;99.90
63966;DHT22;50151;52.030;5.350;2024-03-02T18:15:16;12.30;99.90
63966;DHT22;50151;52.030;5.350;2024-03-02T18:17:43;12.30;99.90
63966;DHT22;50151;52.030;5.350;2024-03-02T18:20:12;12.30;99.90
63966;DHT22;50151;52.030;5.350;2024-03-02T18:22:42;12.30;99.90
63966;DHT22;50151;52.030;5.350;2024-03-02T18:25:12;12.30;99.90
63966;DHT22;50151;52.030;5.350;2024-03-02T18:27:39;12.30;99.90
63966;DHT22;50151;52.030;5.350;2024-03-02T18:30:07;12.30;99.90
63966;DHT22;50151;52.030;5.350;2024-03-02T18:32:38;12.30;99.90
63966;DHT22;50151;52.030;5.350;2024-03-02T18:35:06;12.30;99.90
63966;DHT22;50151;52.030;5.350;2024-03-02T18:37:38;12.30;99.90
63966;DHT22;50151;52.030;5.350;2024-03-02T18:40:06;12.30;99.90
63966;DHT22;50151;52.030;5.350;2024-03-02T18:42:34;12.30;99.90
63966;DHT22;50151;52.030;5.350;2024-03-02T18:45:02;12.30;99.90
63966;DHT22;50151;52.030;5.350;2024-03-02T18:47:32;12.20;99.90
63966;DHT22;50151;52.030;5.350;2024-03-02T18:50:01;12.20;99.90
63966;DHT22;50151;52.030;5.350;2024-03-02T18:52:31;12.20;99.90
63966;DHT22;50151;52.030;5.350;2024-03-02T18:55:04;12.20;99.90
63966;DHT22;50151;52.030;5.350;2024-03-02T18:57:33;12.20;99.90
63966;DHT22;50151;52.030;5.350;2024-03-02T19:00:00;12.10;99.90
63966;DHT22;50151;52.030;5.350;2024-03-02T19:02:28;12.10;99.90
63966;DHT22;50151;52.030;5.350;2024-03-02T19:04:55;12.10;99.90
63966;DHT22;50151;52.030;5.350;2024-03-02T19:07:22;12.10;99.90
63966;DHT22;50151;52.030;5.350;2024-03-02T19:09:49;12.10;99.90
63966;DHT22;50151;52.030;5.350;2024-03-02T19:12:16;12.10;99.90
63966;DHT22;50151;52.030;5.350;2024-03-02T19:14:42;12.10;99.90
63966;DHT22;50151;52.030;5.350;2024-03-02T19:17:09;12.10;99.90
63966;DHT22;50151;52.030;5.350;2024-03-02T19:19:37;12.10;99.90
63966;DHT22;50151;52.030;5.350;2024-03-02T19:22:06;12.00;99.90
63966;DHT22;50151;52.030;5.350;2024-03-02T19:24:37;12.00;99.90
63966;DHT22;50151;52.030;5.350;2024-03-02T19:27:05;12.00;99.90
63966;DHT22;50151;52.030;5.350;2024-03-02T19:29:32;11.90;99.90
63966;DHT22;50151;52.030;5.350;2024-03-02T19:31:59;11.90;99.90
63966;DHT22;50151;52.030;5.350;2024-03-02T19:34:33;11.90;99.90
63966;DHT22;50151;52.030;5.350;2024-03-02T19:37:00;11.80;99.90
63966;DHT22;50151;52.030;5.350;2024-03-02T19:39:27;11.80;99.90
63966;DHT22;50151;52.030;5.350;2024-03-02T19:41:54;11.70;99.90
63966;DHT22;50151;52.030;5.350;2024-03-02T19:44:21;11.70;99.90
63966;DHT22;50151;52.030;5.350;2024-03-02T19:46:55;11.70;99.90
63966;DHT22;50151;52.030;5.350;2024-03-02T19:49:22;11.60;99.90
63966;DHT22;50151;52.030;5.350;2024-03-02T19:51:50;11.60;99.90
63966;DHT22;50151;52.030;5.350;2024-03-02T19:54:17;11.60;99.90
63966;DHT22;50151;52.030;5.350;2024-03-02T19:56:44;11.60;99.90
63966;DHT22;50151;52.030;5.350;2024-03-02T19:59:12;11.60;99.90
63966;DHT22;50151;52.030;5.350;2024-03-02T20:01:39;11.50;99.90
63966;DHT22;50151;52.030;5.350;2024-03-02T20:04:09;11.50;99.90
63966;DHT22;50151;52.030;5.350;2024-03-02T20:06:37;11.50;99.90
63966;DHT22;50151;52.030;5.350;2024-03-02T20:09:04;11.40;99.90
63966;DHT22;50151;52.030;5.350;2024-03-02T20:11:32;11.40;99.90
63966;DHT22;50151;52.030;5.350;2024-03-02T20:14:00;11.40;99.90
63966;DHT22;50151;52.030;5.350;2024-03-02T20:16:26;11.30;99.90
63966;DHT22;50151;52.030;5.350;2024-03-02T20:18:53;11.30;99.90
63966;DHT22;50151;52.030;5.350;2024-03-02T20:21:20;11.30;99.90
63966;DHT22;50151;52.030;5.350;2024-03-02T20:23:47;11.30;99.90
63966;DHT22;50151;52.030;5.350;2024-03-02T20:26:15;11.30;99.90
63966;DHT22;50151;52.030;5.350;2024-03-02T20:28:46;11.30;99.90
63966;DHT22;50151;52.030;5.350;2024-03-02T20:31:12;11.20;99.90
63966;DHT22;50151;52.030;5.350;2024-03-02T20:33:41;11.20;99.90
63966;DHT22;50151;52.030;5.350;2024-03-02T20:36:14;11.20;99.90
63966;DHT22;50151;52.030;5.350;2024-03-02T20:38:41;11.20;99.90
63966;DHT22;50151;52.030;5.350;2024-03-02T20:41:18;11.10;99.90
63966;DHT22;50151;52.030;5.350;2024-03-02T20:43:45;11.10;99.90
63966;DHT22;50151;52.030;5.350;2024-03-02T20:46:13;11.10;99.90
63966;DHT22;50151;52.030;5.350;2024-03-02T20:48:40;11.10;99.90
63966;DHT22;50151;52.030;5.350;2024-03-02T20:51:07;11.00;99.90
63966;DHT22;50151;52.030;5.350;2024-03-02T20:53:34;11.00;99.90
63966;DHT22;50151;52.030;5.350;2024-03-02T20:56:00;11.10;99.90
63966;DHT22;50151;52.030;5.350;2024-03-02T20:58:27;11.00;99.90
63966;DHT22;50151;52.030;5.350;2024-03-02T21:00:54;11.00;99.90
63966;DHT22;50151;52.030;5.350;2024-03-02T21:03:21;10.90;99.90
63966;DHT22;50151;52.030;5.350;2024-03-02T21:05:51;10.90;99.90
63966;DHT22;50151;52.030;5.350;2024-03-02T21:08:18;10.90;99.90
63966;DHT22;50151;52.030;5.350;2024-03-02T21:10:45;10.90;99.90
63966;DHT22;50151;52.030;5.350;2024-03-02T21:13:15;10.90;99.90
63966;DHT22;50151;52.030;5.350;2024-03-02T21:15:42;10.90;99.90
63966;DHT22;50151;52.030;5.350;2024-03-02T21:18:09;10.80;99.90
63966;DHT22;50151;52.030;5.350;2024-03-02T21:20:36;10.90;99.90
63966;DHT22;50151;52.030;5.350;2024-03-02T21:23:03;10.80;99.90
63966;DHT22;50151;52.030;5.350;2024-03-02T21:25:29;10.80;99.90
63966;DHT22;50151;52.030;5.350;2024-03-02T21:28:00;10.80;99.90
63966;DHT22;50151;52.030;5.350;2024-03-02T21:30:28;10.80;99.90
63966;DHT22;50151;52.030;5.350;2024-03-02T21:32:57;10.80;99.90
63966;DHT22;50151;52.030;5.350;2024-03-02T21:35:24;10.80;99.90
63966;DHT22;50151;52.030;5.350;2024-03-02T21:37:53;10.80;99.90
63966;DHT22;50151;52.030;5.350;2024-03-02T21:40:20;10.90;99.90
63966;DHT22;50151;52.030;5.350;2024-03-02T21:42:47;10.90;99.90
63966;DHT22;50151;52.030;5.350;2024-03-02T21:45:14;10.90;99.90
63966;DHT22;50151;52.030;5.350;2024-03-02T21:47:41;11.00;99.90
63966;DHT22;50151;52.030;5.350;2024-03-02T21:50:08;11.00;99.90
63966;DHT22;50151;52.030;5.350;2024-03-02T21:52:35;11.00;99.90
63966;DHT22;50151;52.030;5.350;2024-03-02T21:55:02;11.00;99.90
63966;DHT22;50151;52.030;5.350;2024-03-02T21:57:30;11.00;99.90
63966;DHT22;50151;52.030;5.350;2024-03-02T21:59:56;11.00;99.90
63966;DHT22;50151;52.030;5.350;2024-03-02T22:02:24;11.00;99.90
63966;DHT22;50151;52.030;5.350;2024-03-02T22:04:50;11.00;99.90
63966;DHT22;50151;52.030;5.350;2024-03-02T22:07:17;10.90;99.90
63966;DHT22;50151;52.030;5.350;2024-03-02T22:09:44;10.90;99.90
63966;DHT22;50151;52.030;5.350;2024-03-02T22:12:11;10.90;99.90
63966;DHT22;50151;52.030;5.350;2024-03-02T22:14:38;10.80;99.90
63966;DHT22;50151;52.030;5.350;2024-03-02T22:17:05;10.90;99.90
63966;DHT22;50151;52.030;5.350;2024-03-02T22:19:32;10.90;99.90
63966;DHT22;50151;52.030;5.350;2024-03-02T22:21:58;10.90;99.90
63966;DHT22;50151;52.030;5.350;2024-03-02T22:24:25;10.90;99.90
63966;DHT22;50151;52.030;5.350;2024-03-02T22:26:55;10.90;99.90
63966;DHT22;50151;52.030;5.350;2024-03-02T22:29:22;10.90;99.90
63966;DHT22;50151;52.030;5.350;2024-03-02T22:31:49;10.90;99.90
63966;DHT22;50151;52.030;5.350;2024-03-02T22:34:16;10.80;99.90
63966;DHT22;50151;52.030;5.350;2024-03-02T22:36:42;10.90;99.90
63966;DHT22;50151;52.030;5.350;2024-03-02T22:39:09;10.80;99.90
63966;DHT22;50151;52.030;5.350;2024-03-02T22:41:36;10.80;99.90
63966;DHT22;50151;52.030;5.350;2024-03-02T22:44:03;10.90;99.90
63966;DHT22;50151;52.030;5.350;2024-03-02T22:46:30;10.90;99.90
63966;DHT22;50151;52.030;5.350;2024-03-02T22:48:57;10.90;99.90
63966;DHT22;50151;52.030;5.350;2024-03-02T22:51:25;10.90;99.90
63966;DHT22;50151;52.030;5.350;2024-03-02T22:53:52;10.90;99.90
63966;DHT22;50151;52.030;5.350;2024-03-02T22:56:19;10.90;99.90
63966;DHT22;50151;52.030;5.350;2024-03-02T22:58:47;11.00;99.90
63966;DHT22;50151;52.030;5.350;2024-03-02T23:01:13;11.00;99.90
63966;DHT22;50151;52.030;5.350;2024-03-02T23:03:41;11.00;99.90
63966;DHT22;50151;52.030;5.350;2024-03-02T23:06:08;11.00;99.90
63966;DHT22;50151;52.030;5.350;2024-03-02T23:08:35;11.00;99.90
63966;DHT22;50151;52.030;5.350;2024-03-02T23:11:03;11.00;99.90
63966;DHT22;50151;52.030;5.350;2024-03-02T23:13:31;11.00;99.90
63966;DHT22;50151;52.030;5.350;2024-03-02T23:15:58;11.00;99.90
63966;DHT22;50151;52.030;5.350;2024-03-02T23:18:26;11.00;99.90
63966;DHT22;50151;52.030;5.350;2024-03-02T23:20:53;11.00;99.90
63966;DHT22;50151;52.030;5.350;2024-03-02T23:23:20;11.10;99.90
63966;DHT22;50151;52.030;5.350;2024-03-02T23:25:47;11.00;99.90
63966;DHT22;50151;52.030;5.350;2024-03-02T23:28:15;11.10;99.90
63966;DHT22;50151;52.030;5.350;2024-03-02T23:30:42;11.00;99.90
63966;DHT22;50151;52.030;5.350;2024-03-02T23:33:09;11.00;99.90
63966;DHT22;50151;52.030;5.350;2024-03-02T23:35:37;11.00;99.90
63966;DHT22;50151;52.030;5.350;2024-03-02T23:38:04;11.00;99.90
63966;DHT22;50151;52.030;5.350;2024-03-02T23:40:30;11.00;99.90
63966;DHT22;50151;52.030;5.350;2024-03-02T23:43:16;11.00;99.90
63966;DHT22;50151;52.030;5.350;2024-03-02T23:45:43;11.00;99.90
63966;DHT22;50151;52.030;5.350;2024-03-02T23:48:10;11.00;99.90
63966;DHT22;50151;52.030;5.350;2024-03-02T23:50:37;11.00;99.90
63966;DHT22;50151;52.030;5.350;2024-03-02T23:53:04;10.90;99.90
63966;DHT22;50151;52.030;5.350;2024-03-02T23:55:30;11.00;99.90
63966;DHT22;50151;52.030;5.350;2024-03-02T23:58:16;11.00;99.90
